Time;durP1;ratioP1;P1;durP2;ratioP2;P2;SDS_P1;SDS_P2;PMS_P1;PMS_P2;Temp;Humidity;BMP_temperature;BMP_pressure;BME280_temperature;BME280_humidity;BME280_pressure;Samples;Min_cycle;Max_cycle;Signal;HPM_P1;HPM_P2
2022/12/20 00:01:52;;;;;;;103.85;37.55;;;13.80;86.00;;;;;;5063238;28;20444;-89
2022/12/20 00:04:17;;;;;;;94.38;35.03;;;13.90;86.00;;;;;;5056243;28;20146;-88
2022/12/20 00:06:43;;;;;;;92.15;35.53;;;13.80;86.00;;;;;;5056204;28;20029;-88
2022/12/20 00:09:10;;;;;;;85.13;36.40;;;13.80;86.00;;;;;;5054440;28;20029;-88
2022/12/20 00:11:38;;;;;;;87.28;34.80;;;13.80;85.90;;;;;;5054462;28;20021;-88
2022/12/20 00:14:04;;;;;;;83.13;33.95;;;13.90;86.00;;;;;;5058102;28;20159;-88
2022/12/20 00:16:30;;;;;;;83.65;33.35;;;13.80;86.00;;;;;;5062419;28;20104;-88
2022/12/20 00:18:58;;;;;;;90.65;33.00;;;13.80;86.00;;;;;;5062571;28;20025;-88
2022/12/20 00:21:24;;;;;;;82.43;31.95;;;13.80;86.10;;;;;;5067328;28;20375;-88
2022/12/20 00:23:51;;;;;;;90.80;33.90;;;13.80;86.10;;;;;;5058435;28;20045;-88
2022/12/20 00:26:20;;;;;;;78.95;31.88;;;13.80;86.10;;;;;;5054381;28;20024;-88
2022/12/20 00:28:46;;;;;;;79.13;32.50;;;13.80;86.30;;;;;;5062146;28;20047;-88
2022/12/20 00:31:14;;;;;;;81.72;32.15;;;13.80;86.30;;;;;;5055921;28;20025;-88
2022/12/20 00:33:40;;;;;;;85.22;31.75;;;13.80;86.30;;;;;;5055083;28;20028;-88
2022/12/20 00:36:06;;;;;;;70.32;32.22;;;13.80;86.20;;;;;;5062144;28;20020;-88
2022/12/20 00:38:33;;;;;;;79.95;32.53;;;13.80;86.30;;;;;;5061193;28;20506;-88
2022/12/20 00:41:20;;;;;;;84.13;33.25;;;13.80;86.40;;;;;;5062046;28;20060;-89
2022/12/20 00:43:46;;;;;;;83.60;31.80;;;13.80;86.40;;;;;;5057129;28;20029;-88
2022/12/20 00:46:13;;;;;;;90.70;33.03;;;13.80;86.50;;;;;;5056453;28;20512;-88
2022/12/20 00:48:39;;;;;;;78.95;30.90;;;13.80;86.50;;;;;;5052635;28;20032;-88
2022/12/20 00:51:08;;;;;;;69.93;29.67;;;13.80;86.50;;;;;;5043786;28;20108;-87
2022/12/20 00:53:34;;;;;;;80.55;30.70;;;13.80;86.40;;;;;;5052188;28;20051;-88
2022/12/20 00:56:00;;;;;;;67.70;29.33;;;13.80;86.40;;;;;;5056095;28;20056;-88
2022/12/20 00:58:26;;;;;;;75.63;29.95;;;13.80;86.40;;;;;;5064952;28;20499;-88
2022/12/20 01:00:53;;;;;;;68.60;29.50;;;13.80;86.50;;;;;;5065535;28;20086;-89
2022/12/20 01:03:18;;;;;;;83.00;29.92;;;13.80;86.50;;;;;;5063580;28;20029;-88
2022/12/20 01:05:59;;;;;;;68.85;29.63;;;13.80;86.80;;;;;;5053189;28;20444;-88
2022/12/20 01:08:25;;;;;;;;;;;13.80;87.00;;;;;;5040212;28;20025;-90
2022/12/20 01:11:03;;;;;;;77.82;27.85;;;13.80;87.00;;;;;;5053121;28;20370;-88
2022/12/20 01:13:30;;;;;;;69.80;27.13;;;13.80;87.20;;;;;;5055917;28;20017;-89
2022/12/20 01:15:55;;;;;;;85.80;28.23;;;13.80;87.10;;;;;;5061337;28;20024;-89
2022/12/20 01:18:21;;;;;;;79.60;30.55;;;13.80;87.20;;;;;;5064190;28;20020;-89
2022/12/20 01:20:47;;;;;;;71.13;26.83;;;13.80;87.30;;;;;;5064809;28;20024;-89
2022/12/20 01:23:13;;;;;;;77.38;28.65;;;13.80;87.40;;;;;;5064001;28;20017;-89
2022/12/20 01:25:38;;;;;;;72.95;28.40;;;13.80;87.40;;;;;;5060692;28;20029;-89
2022/12/20 01:28:04;;;;;;;74.28;27.77;;;13.70;87.40;;;;;;5055102;28;20040;-89
2022/12/20 01:30:29;;;;;;;65.53;25.10;;;13.80;87.50;;;;;;5053298;28;20021;-89
2022/12/20 01:32:55;;;;;;;66.25;28.65;;;13.70;87.40;;;;;;5052692;28;20029;-89
2022/12/20 01:35:20;;;;;;;70.13;26.83;;;13.70;87.30;;;;;;5052827;28;20049;-89
2022/12/20 01:37:46;;;;;;;68.45;27.30;;;13.70;87.40;;;;;;5059480;28;20055;-89
2022/12/20 01:40:12;;;;;;;74.68;28.48;;;13.70;87.40;;;;;;5065043;28;20115;-89
2022/12/20 01:42:37;;;;;;;62.08;25.25;;;13.70;87.40;;;;;;5058732;28;20021;-89
2022/12/20 01:45:12;;;;;;;60.00;25.52;;;13.70;87.40;;;;;;5055612;28;20032;-89
2022/12/20 01:47:38;;;;;;;70.07;25.83;;;13.70;87.30;;;;;;5057971;28;20158;-89
2022/12/20 01:50:07;;;;;;;74.95;26.48;;;13.70;87.30;;;;;;5056540;28;20029;-89
2022/12/20 01:52:39;;;;;;;66.18;27.42;;;13.80;87.20;;;;;;5057265;28;20016;-90
2022/12/20 01:55:26;;;;;;;61.90;25.88;;;13.80;87.30;;;;;;5072373;28;20777;-89
2022/12/20 01:57:59;;;;;;;65.38;25.45;;;13.80;87.50;;;;;;5071702;28;20016;-89
2022/12/20 02:00:26;;;;;;;61.97;24.08;;;13.80;87.50;;;;;;5046313;28;20497;-88
2022/12/20 02:02:53;;;;;;;63.35;25.13;;;13.70;87.60;;;;;;5057708;28;20029;-89
2022/12/20 02:05:21;;;;;;;64.95;24.63;;;13.70;87.70;;;;;;5062017;28;20100;-89
2022/12/20 02:07:49;;;;;;;61.03;23.10;;;13.70;87.80;;;;;;5067300;28;20031;-90
2022/12/20 02:10:21;;;;;;;56.13;23.90;;;13.70;87.80;;;;;;5054250;28;20029;-88
2022/12/20 02:12:49;;;;;;;60.08;25.00;;;13.70;87.70;;;;;;5055442;28;20040;-88
2022/12/20 02:15:36;;;;;;;55.33;22.35;;;13.70;87.70;;;;;;5043735;28;20119;-89
2022/12/20 02:18:22;;;;;;;62.60;24.75;;;13.70;87.90;;;;;;5051944;28;20029;-89
2022/12/20 02:21:22;;;;;;;54.67;23.10;;;13.60;87.70;;;;;;5068524;28;20027;-89
2022/12/20 02:23:57;;;;;;;;;;;13.70;87.70;;;;;;5032446;28;20025;-88
2022/12/20 02:26:37;;;;;;;49.50;21.42;;;13.60;87.60;;;;;;5031960;28;19955;-89
2022/12/20 02:29:09;;;;;;;54.35;21.65;;;13.70;87.80;;;;;;5031196;28;20136;-89
2022/12/20 02:31:42;;;;;;;56.75;23.80;;;13.70;87.80;;;;;;5049719;28;20029;-89
2022/12/20 02:34:09;;;;;;;52.47;22.50;;;13.60;87.70;;;;;;5051795;28;20021;-89
2022/12/20 02:36:35;;;;;;;56.58;23.15;;;13.70;87.80;;;;;;5034849;28;20032;-89
2022/12/20 02:39:01;;;;;;;56.45;22.98;;;13.70;87.80;;;;;;5051359;28;20021;-87
2022/12/20 02:41:35;;;;;;;47.85;21.85;;;13.60;87.70;;;;;;5051349;28;20029;-89
2022/12/20 02:47:00;;;;;;;56.45;20.83;;;13.60;87.60;;;;;;5033154;28;20060;-89
2022/12/20 02:49:29;;;;;;;58.72;22.05;;;13.60;87.60;;;;;;5031238;28;20052;-89
2022/12/20 02:51:57;;;;;;;48.58;20.05;;;13.60;87.70;;;;;;5052596;28;20017;-89
2022/12/20 02:54:24;;;;;;;59.80;20.80;;;13.60;87.70;;;;;;5051363;28;20025;-89
2022/12/20 02:57:15;;;;;;;43.05;19.70;;;13.60;87.70;;;;;;5052560;28;20058;-89
2022/12/20 02:59:48;;;;;;;44.90;18.75;;;13.60;87.60;;;;;;5039651;28;20035;-89
2022/12/20 03:02:14;;;;;;;54.17;19.85;;;13.60;87.70;;;;;;5031438;28;20025;-89
2022/12/20 03:04:40;;;;;;;52.15;19.77;;;13.60;87.60;;;;;;5031285;28;20033;-89
2022/12/20 03:07:12;;;;;;;49.42;18.92;;;13.60;87.60;;;;;;5031221;28;20572;-89
2022/12/20 03:09:40;;;;;;;44.20;18.50;;;13.60;87.60;;;;;;5031943;28;20107;-89
2022/12/20 03:12:07;;;;;;;55.05;21.25;;;13.60;87.70;;;;;;5070940;28;20028;-89
2022/12/20 03:14:33;;;;;;;39.45;17.48;;;13.60;87.60;;;;;;5064390;28;20024;-89
2022/12/20 03:16:59;;;;;;;42.83;18.95;;;13.60;87.60;;;;;;5052487;28;20029;-89
2022/12/20 03:19:25;;;;;;;42.38;17.77;;;13.60;87.80;;;;;;5051022;28;20482;-89
2022/12/20 03:21:51;;;;;;;46.53;18.10;;;13.60;87.80;;;;;;5057220;28;20036;-89
2022/12/20 03:24:16;;;;;;;46.55;18.13;;;13.60;87.70;;;;;;5051103;28;20029;-89
2022/12/20 03:26:42;;;;;;;42.60;18.05;;;13.60;87.80;;;;;;5051250;28;20025;-89
2022/12/20 03:29:08;;;;;;;40.97;17.55;;;13.60;87.90;;;;;;5050860;28;20153;-89
2022/12/20 03:31:34;;;;;;;41.92;17.17;;;13.60;88.00;;;;;;5050705;28;20025;-89
2022/12/20 03:33:59;;;;;;;43.65;17.00;;;13.60;88.00;;;;;;5051055;28;20032;-89
2022/12/20 03:36:25;;;;;;;39.45;16.95;;;13.50;87.90;;;;;;5047969;28;20482;-88
2022/12/20 03:38:52;;;;;;;39.88;18.45;;;13.50;87.90;;;;;;5050570;28;20145;-89
2022/12/20 03:41:20;;;;;;;44.67;18.08;;;13.50;88.10;;;;;;5062209;28;20552;-89
2022/12/20 03:43:45;;;;;;;40.88;16.75;;;13.50;88.10;;;;;;5056296;28;20406;-89
2022/12/20 03:46:11;;;;;;;39.42;16.33;;;13.50;88.10;;;;;;5069149;28;20036;-89
2022/12/20 03:48:36;;;;;;;49.45;17.50;;;13.50;88.20;;;;;;5055989;28;20025;-88
2022/12/20 03:51:03;;;;;;;44.55;16.75;;;13.50;88.30;;;;;;5054332;28;20025;-89
2022/12/20 03:53:28;;;;;;;40.22;17.08;;;13.50;88.40;;;;;;5054428;28;20108;-89
2022/12/20 03:55:54;;;;;;;37.75;15.35;;;13.50;88.20;;;;;;5054825;28;20103;-89
2022/12/20 03:58:19;;;;;;;38.15;15.57;;;13.50;88.30;;;;;;5055886;28;20017;-89
2022/12/20 04:00:45;;;;;;;44.22;16.50;;;13.50;88.30;;;;;;5062109;28;20099;-89
2022/12/20 04:03:10;;;;;;;43.08;17.30;;;13.50;88.30;;;;;;5074700;28;20020;-89
2022/12/20 04:05:36;;;;;;;40.58;16.33;;;13.50;88.20;;;;;;5065574;28;20031;-90
2022/12/20 04:08:01;;;;;;;37.80;15.32;;;13.50;88.20;;;;;;5054424;28;20021;-89
2022/12/20 04:10:27;;;;;;;34.50;15.15;;;13.50;88.20;;;;;;5055343;28;20120;-89
2022/12/20 04:12:53;;;;;;;33.50;14.63;;;13.50;88.20;;;;;;5054458;28;20048;-89
2022/12/20 04:15:18;;;;;;;35.10;14.85;;;13.50;88.10;;;;;;5065769;28;20447;-89
2022/12/20 04:17:44;;;;;;;34.60;14.60;;;13.40;88.20;;;;;;5074253;28;20659;-89
2022/12/20 04:20:19;;;;;;;33.70;15.65;;;13.40;88.20;;;;;;5068989;28;20033;-89
2022/12/20 04:22:50;;;;;;;33.85;14.80;;;13.40;88.20;;;;;;5054341;28;20414;-89
2022/12/20 04:25:18;;;;;;;41.72;15.45;;;13.40;88.10;;;;;;5040150;28;20029;-89
2022/12/20 04:27:43;;;;;;;32.00;14.05;;;13.40;88.10;;;;;;5035405;28;20064;-89
2022/12/20 04:30:10;;;;;;;31.85;14.18;;;13.40;88.00;;;;;;5053484;28;20068;-89
2022/12/20 04:32:36;;;;;;;34.50;13.93;;;13.40;88.00;;;;;;5053842;28;20512;-89
2022/12/20 04:35:02;;;;;;;31.65;13.45;;;13.50;88.10;;;;;;5061054;28;20070;-88
2022/12/20 04:37:29;;;;;;;40.13;15.80;;;13.40;87.90;;;;;;5075249;28;20044;-89
2022/12/20 04:39:55;;;;;;;31.42;13.90;;;13.50;87.90;;;;;;5075059;28;20504;-89
2022/12/20 04:42:21;;;;;;;40.80;14.57;;;13.50;88.10;;;;;;5048186;28;20052;-89
2022/12/20 04:44:46;;;;;;;36.25;14.00;;;13.50;88.10;;;;;;5055182;28;20036;-89
2022/12/20 04:47:12;;;;;;;28.23;12.18;;;13.50;88.40;;;;;;5053764;28;20040;-89
2022/12/20 04:49:38;;;;;;;31.67;13.93;;;13.50;88.40;;;;;;5053519;28;20075;-89
2022/12/20 04:54:47;;;;;;;33.65;13.52;;;13.40;88.50;;;;;;5060068;28;20039;-90
2022/12/20 04:57:13;;;;;;;32.33;13.23;;;13.40;88.50;;;;;;5073611;28;20104;-89
2022/12/20 04:59:39;;;;;;;31.35;12.45;;;13.40;88.40;;;;;;5074744;28;20025;-89
2022/12/20 05:02:04;;;;;;;29.13;13.30;;;13.40;88.30;;;;;;5073592;28;20028;-89
2022/12/20 05:04:30;;;;;;;31.08;13.90;;;13.40;88.50;;;;;;5074840;28;20025;-89
2022/12/20 05:06:55;;;;;;;33.78;13.43;;;13.40;88.60;;;;;;5073721;28;20029;-90
2022/12/20 05:09:21;;;;;;;27.50;12.35;;;13.40;88.60;;;;;;5074430;28;20033;-89
2022/12/20 05:11:48;;;;;;;31.83;12.43;;;13.40;88.50;;;;;;5073327;28;20035;-89
2022/12/20 05:14:13;;;;;;;27.70;11.90;;;13.40;88.40;;;;;;5065939;28;20437;-90
2022/12/20 05:16:39;;;;;;;38.28;13.80;;;13.40;88.20;;;;;;5071217;28;20149;-90
2022/12/20 05:19:05;;;;;;;24.73;10.93;;;13.50;88.20;;;;;;5073053;28;20662;-89
2022/12/20 05:26:58;;;;;;;31.90;12.73;;;13.50;88.50;;;;;;5054413;28;20052;-90
2022/12/20 05:29:24;;;;;;;28.42;11.63;;;13.50;88.60;;;;;;5052859;28;20486;-90
2022/12/20 05:31:49;;;;;;;28.05;11.70;;;13.50;88.70;;;;;;5052907;28;20032;-90
2022/12/20 05:34:15;;;;;;;35.08;12.52;;;13.50;88.70;;;;;;5054335;28;20437;-90
2022/12/20 05:36:41;;;;;;;26.10;11.70;;;13.50;88.60;;;;;;5052835;28;20055;-90
2022/12/20 05:39:06;;;;;;;28.45;11.70;;;13.60;88.70;;;;;;5052596;28;20025;-89
2022/12/20 05:41:32;;;;;;;24.92;12.77;;;13.60;88.60;;;;;;5053902;28;20510;-89
2022/12/20 05:43:58;;;;;;;28.17;11.02;;;13.60;88.70;;;;;;5052852;28;20029;-89
2022/12/20 05:46:23;;;;;;;26.60;11.82;;;13.60;88.70;;;;;;5052736;28;20073;-90
2022/12/20 05:48:49;;;;;;;26.60;11.98;;;13.60;88.60;;;;;;5052660;28;20048;-90
2022/12/20 05:51:14;;;;;;;22.50;11.05;;;13.70;88.70;;;;;;5052308;28;20052;-90
2022/12/20 05:53:40;;;;;;;24.58;11.80;;;13.70;88.60;;;;;;5053923;28;20033;-89
2022/12/20 05:56:06;;;;;;;30.35;10.88;;;13.70;88.60;;;;;;5052652;28;20033;-89
2022/12/20 05:58:31;;;;;;;21.60;10.63;;;13.70;88.60;;;;;;5053471;28;20029;-90
2022/12/20 06:01:00;;;;;;;23.70;11.68;;;13.70;88.50;;;;;;5052203;28;20025;-90
2022/12/20 06:03:26;;;;;;;30.08;11.13;;;13.70;88.60;;;;;;5052398;28;20120;-90
2022/12/20 06:05:51;;;;;;;30.33;11.80;;;13.70;88.50;;;;;;5053602;28;20060;-90
2022/12/20 06:08:17;;;;;;;22.15;10.35;;;13.70;88.50;;;;;;5052070;28;20025;-90
2022/12/20 06:10:43;;;;;;;29.42;11.02;;;13.70;88.60;;;;;;5052297;28;20135;-89
2022/12/20 06:13:09;;;;;;;22.63;10.90;;;13.70;88.50;;;;;;5052415;28;20032;-90
2022/12/20 06:15:34;;;;;;;20.10;9.65;;;13.80;88.60;;;;;;5052285;28;20063;-90
2022/12/20 06:18:00;;;;;;;24.15;9.70;;;13.70;88.70;;;;;;5052210;28;20056;-90
2022/12/20 06:20:26;;;;;;;20.08;8.98;;;13.70;88.70;;;;;;5051979;28;20593;-90
2022/12/20 06:22:51;;;;;;;25.73;10.93;;;13.70;88.70;;;;;;5051951;28;20025;-90
2022/12/20 06:25:17;;;;;;;24.60;11.35;;;13.70;88.70;;;;;;5052065;28;20024;-90
2022/12/20 06:27:43;;;;;;;25.55;11.35;;;13.70;88.90;;;;;;5053430;28;20482;-90
2022/12/20 06:30:09;;;;;;;21.58;9.55;;;13.70;88.80;;;;;;5052080;28;20112;-90
2022/12/20 06:32:35;;;;;;;28.30;9.90;;;13.70;88.70;;;;;;5051888;28;20029;-90
2022/12/20 06:35:01;;;;;;;20.13;9.50;;;13.70;88.70;;;;;;5052116;28;20034;-90
2022/12/20 06:37:27;;;;;;;21.90;10.35;;;13.70;88.70;;;;;;5052177;28;20065;-90
2022/12/20 06:39:52;;;;;;;19.73;8.73;;;13.70;88.50;;;;;;5051754;28;20029;-90
2022/12/20 06:42:18;;;;;;;22.10;9.40;;;13.70;88.60;;;;;;5051628;28;20033;-90
2022/12/20 06:44:43;;;;;;;25.10;8.82;;;13.70;88.70;;;;;;5051850;28;20025;-90
2022/12/20 06:47:09;;;;;;;28.05;10.75;;;13.70;88.60;;;;;;5052235;28;20031;-89
2022/12/20 06:49:34;;;;;;;19.05;9.43;;;13.80;89.30;;;;;;5052811;28;20021;-93
2022/12/20 06:52:00;;;;;;;23.90;9.90;;;13.80;89.10;;;;;;5063922;28;20036;-92
2022/12/20 06:54:26;;;;;;;23.20;9.73;;;13.80;89.10;;;;;;5057360;28;20032;-88
2022/12/20 06:56:51;;;;;;;23.40;10.15;;;13.70;89.10;;;;;;5052159;28;20052;-88
2022/12/20 06:59:17;;;;;;;24.40;10.50;;;13.80;89.10;;;;;;5051515;28;20417;-87
2022/12/20 07:01:43;;;;;;;20.40;8.95;;;13.80;89.20;;;;;;5051447;28;20406;-89
2022/12/20 07:04:09;;;;;;;25.63;10.93;;;13.70;89.30;;;;;;5053262;28;20070;-89
2022/12/20 07:06:35;;;;;;;26.27;10.48;;;13.70;89.30;;;;;;5051433;28;20460;-88
2022/12/20 07:09:01;;;;;;;21.33;8.52;;;13.80;89.30;;;;;;5051251;28;20033;-88
2022/12/20 07:11:26;;;;;;;23.67;8.90;;;13.80;89.20;;;;;;5051349;28;20047;-88
2022/12/20 07:13:56;;;;;;;21.70;8.93;;;13.80;89.20;;;;;;5051227;28;20025;-88
2022/12/20 07:16:22;;;;;;;20.35;8.68;;;13.80;89.20;;;;;;5052186;28;20053;-88
2022/12/20 07:18:54;;;;;;;23.35;9.80;;;13.90;89.20;;;;;;5052392;28;20122;-87
2022/12/20 07:21:20;;;;;;;22.08;9.88;;;13.90;89.20;;;;;;5051120;28;20049;-87
2022/12/20 07:23:46;;;;;;;29.13;9.90;;;13.90;89.20;;;;;;5051018;28;20052;-87
2022/12/20 07:26:13;;;;;;;26.88;9.35;;;13.90;89.10;;;;;;5051134;28;20075;-89
2022/12/20 07:28:39;;;;;;;27.23;9.82;;;13.90;89.10;;;;;;5051007;28;20025;-88
2022/12/20 07:31:05;;;;;;;18.30;8.85;;;13.90;89.00;;;;;;5051157;28;20478;-87
2022/12/20 07:33:31;;;;;;;18.40;8.68;;;14.00;89.00;;;;;;5051008;28;20035;-89
2022/12/20 07:36:15;;;;;;;20.08;9.38;;;14.00;89.00;;;;;;5051014;28;20021;-88
2022/12/20 07:38:41;;;;;;;16.45;8.27;;;14.00;89.00;;;;;;5037605;28;20104;-87
2022/12/20 07:41:13;;;;;;;32.63;9.25;;;14.00;89.00;;;;;;5050879;28;20082;-87
2022/12/20 07:43:39;;;;;;;24.48;9.98;;;14.00;89.00;;;;;;5051188;28;20036;-87
2022/12/20 07:46:05;;;;;;;18.95;9.38;;;14.00;88.80;;;;;;5051130;28;20029;-87
2022/12/20 07:48:31;;;;;;;18.13;8.25;;;14.00;89.60;;;;;;5053732;28;20033;-91
2022/12/20 07:51:05;;;;;;;22.20;9.73;;;14.00;88.90;;;;;;5052757;28;20071;-93
2022/12/20 07:53:33;;;;;;;21.88;9.38;;;14.00;88.80;;;;;;5052150;28;20067;-91
2022/12/20 07:56:00;;;;;;;19.05;7.82;;;14.00;88.90;;;;;;5052250;28;20048;-92
2022/12/20 07:58:27;;;;;;;16.15;8.27;;;14.00;88.90;;;;;;5052227;28;20032;-92
2022/12/20 08:00:53;;;;;;;21.83;8.57;;;14.00;88.80;;;;;;5051602;28;20082;-92
2022/12/20 08:03:24;;;;;;;23.45;7.88;;;14.00;88.80;;;;;;5058607;28;20600;-92
2022/12/20 08:05:55;;;;;;;17.95;7.72;;;14.00;88.70;;;;;;5052440;28;20021;-93
2022/12/20 08:08:21;;;;;;;14.88;7.38;;;14.10;88.60;;;;;;5052025;28;20049;-92
2022/12/20 08:10:48;;;;;;;13.90;7.03;;;14.00;88.40;;;;;;5051466;28;20048;-91
2022/12/20 08:13:14;;;;;;;20.60;8.18;;;14.10;88.40;;;;;;5050936;28;20426;-92
2022/12/20 08:15:40;;;;;;;19.45;7.72;;;14.10;88.30;;;;;;5051769;28;20025;-92
2022/12/20 08:18:05;;;;;;;19.30;7.82;;;14.10;88.30;;;;;;5051451;28;20017;-93
2022/12/20 08:20:31;;;;;;;14.98;7.25;;;14.10;88.30;;;;;;5051383;28;20053;-91
2022/12/20 08:22:57;;;;;;;13.68;7.15;;;14.10;88.30;;;;;;5051803;28;20029;-92
2022/12/20 08:25:23;;;;;;;17.73;6.60;;;14.10;88.20;;;;;;5052194;28;20375;-92
2022/12/20 08:27:48;;;;;;;13.18;6.47;;;14.10;88.10;;;;;;5053462;28;20031;-92
2022/12/20 08:30:14;;;;;;;15.00;7.05;;;14.10;88.00;;;;;;5054963;28;20068;-92
2022/12/20 08:32:40;;;;;;;17.27;7.30;;;14.10;87.90;;;;;;5055059;28;20096;-92
2022/12/20 08:35:07;;;;;;;23.23;6.80;;;14.10;87.90;;;;;;5054797;28;20013;-93
2022/12/20 08:37:33;;;;;;;15.40;7.40;;;14.10;88.00;;;;;;5048578;28;20076;-92
2022/12/20 08:39:59;;;;;;;18.02;6.82;;;14.10;87.70;;;;;;5052479;28;20080;-92
2022/12/20 08:42:26;;;;;;;13.00;6.85;;;14.10;87.70;;;;;;5055332;28;20534;-91
2022/12/20 08:44:51;;;;;;;13.60;6.22;;;14.20;87.50;;;;;;5055300;28;20060;-92
2022/12/20 08:47:17;;;;;;;16.55;7.93;;;14.20;87.30;;;;;;5085915;22;20069;-90
2022/12/20 08:49:42;;;;;;;13.50;6.53;;;14.20;87.20;;;;;;4996455;28;20502;-90
2022/12/20 08:52:08;;;;;;;14.15;6.57;;;14.20;87.10;;;;;;4992642;28;20014;-90
2022/12/20 08:54:33;;;;;;;13.40;6.75;;;14.20;86.90;;;;;;4997025;28;20548;-91
2022/12/20 08:56:59;;;;;;;17.17;6.95;;;14.20;87.60;;;;;;4997170;28;20032;-91
2022/12/20 08:59:25;;;;;;;16.73;8.15;;;14.30;86.80;;;;;;4998045;28;20085;-92
2022/12/20 09:01:53;;;;;;;16.10;6.68;;;14.30;86.70;;;;;;4996910;28;20018;-90
2022/12/20 09:04:18;;;;;;;15.88;7.20;;;14.30;86.80;;;;;;4996588;28;20026;-91
2022/12/20 09:06:44;;;;;;;20.20;7.13;;;14.40;86.70;;;;;;4996446;28;20037;-90
2022/12/20 09:09:10;;;;;;;19.42;7.25;;;14.30;86.70;;;;;;4996443;28;20117;-91
2022/12/20 09:11:35;;;;;;;18.38;6.60;;;14.30;86.70;;;;;;4990280;28;20089;-91
2022/12/20 09:14:01;;;;;;;14.75;6.40;;;14.40;86.70;;;;;;4986880;28;20026;-91
2022/12/20 09:16:29;;;;;;;10.32;5.65;;;14.30;86.80;;;;;;4996381;28;20030;-90
2022/12/20 09:18:57;;;;;;;19.42;7.38;;;14.40;86.90;;;;;;5007913;28;20513;-91
2022/12/20 09:21:23;;;;;;;12.75;6.57;;;14.30;87.00;;;;;;4990739;28;20041;-90
2022/12/20 09:23:55;;;;;;;15.48;7.05;;;14.30;87.00;;;;;;4999472;28;20025;-91
2022/12/20 09:26:22;;;;;;;19.25;6.25;;;14.30;87.00;;;;;;4993665;28;20499;-90
2022/12/20 09:28:48;;;;;;;15.18;5.93;;;14.30;87.10;;;;;;4996118;28;20109;-90
2022/12/20 09:31:16;;;;;;;13.63;6.38;;;14.30;87.10;;;;;;4996185;28;20029;-91
2022/12/20 09:33:42;;;;;;;15.18;6.57;;;14.20;87.10;;;;;;4988365;28;20018;-91
2022/12/20 09:36:17;;;;;;;14.05;6.40;;;14.30;87.00;;;;;;4996085;28;20384;-90
2022/12/20 09:38:43;;;;;;;15.02;6.47;;;14.30;86.80;;;;;;4985735;28;20065;-91
2022/12/20 09:41:36;;;;;;;14.45;6.40;;;14.30;86.60;;;;;;5015295;28;20030;-91
2022/12/20 09:44:12;;;;;;;16.63;6.32;;;14.30;86.50;;;;;;4999173;28;20046;-91
2022/12/20 09:46:39;;;;;;;13.68;6.50;;;14.30;86.50;;;;;;5000280;28;20033;-91
2022/12/20 09:49:05;;;;;;;15.38;5.30;;;14.30;86.50;;;;;;4996962;28;20029;-89
2022/12/20 09:51:53;;;;;;;12.68;6.13;;;14.40;86.40;;;;;;4996604;28;20026;-89
2022/12/20 09:54:45;;;;;;;15.38;6.32;;;14.40;86.40;;;;;;4991603;28;20026;-88
2022/12/20 09:57:28;;;;;;;14.27;6.35;;;14.50;87.10;;;;;;4981925;28;20033;-89
2022/12/20 09:59:56;;;;;;;12.40;6.28;;;14.50;86.80;;;;;;4989750;28;20034;-87
2022/12/20 10:02:24;;;;;;;16.27;6.53;;;14.50;86.70;;;;;;4991869;28;20025;-89
2022/12/20 10:04:51;;;;;;;13.45;5.95;;;14.50;86.60;;;;;;4995780;28;20445;-88
2022/12/20 10:07:40;;;;;;;13.70;6.25;;;14.50;87.30;;;;;;5012595;28;20033;-88
2022/12/20 10:10:24;;;;;;;14.75;5.93;;;14.50;86.60;;;;;;4993820;28;20022;-88
2022/12/20 10:12:59;;;;;;;16.15;6.47;;;14.50;86.50;;;;;;4991448;28;20018;-89
2022/12/20 10:15:30;;;;;;;13.38;6.63;;;14.60;86.50;;;;;;4984660;28;20118;-87
2022/12/20 10:18:22;;;;;;;16.17;6.32;;;14.50;86.40;;;;;;4992238;28;20022;-88
2022/12/20 10:21:07;;;;;;;13.40;6.28;;;14.60;86.20;;;;;;4990920;28;20029;-89
2022/12/20 10:23:43;;;;;;;14.75;6.55;;;14.60;86.10;;;;;;4995734;28;20033;-87
2022/12/20 10:26:11;;;;;;;12.45;5.93;;;14.60;86.00;;;;;;5001300;28;20037;-89
2022/12/20 10:28:38;;;;;;;15.68;5.90;;;14.60;85.90;;;;;;5001798;28;20079;-89
2022/12/20 10:31:12;;;;;;;13.82;6.57;;;14.70;85.80;;;;;;4995607;28;20022;-88
2022/12/20 10:33:38;;;;;;;12.45;5.72;;;14.70;85.70;;;;;;4996000;28;20026;-87
2022/12/20 10:36:31;;;;;;;14.25;6.53;;;14.70;85.60;;;;;;5013399;28;20493;-89
2022/12/20 10:38:58;;;;;;;14.45;6.65;;;14.70;85.50;;;;;;4995668;28;20037;-89
2022/12/20 10:41:47;;;;;;;13.65;6.35;;;14.80;85.40;;;;;;4995438;28;20080;-89
2022/12/20 10:44:29;;;;;;;22.30;7.15;;;14.80;85.40;;;;;;5011842;28;20075;-89
2022/12/20 10:46:57;;;;;;;19.83;6.07;;;14.80;85.20;;;;;;4995309;28;20089;-89
2022/12/20 10:49:36;;;;;;;25.95;10.77;;;14.80;85.10;;;;;;4996226;28;20064;-90
2022/12/20 10:52:11;;;;;;;44.35;12.23;;;13.10;71.90;;;;;;4995258;28;20506;-91
2022/12/20 10:54:45;;;;;;;27.23;12.30;;;13.20;82.90;;;;;;4996041;28;20475;-89
2022/12/20 10:57:21;;;;;;;25.55;12.00;;;13.90;76.60;;;;;;4995279;28;20036;-89
2022/12/20 10:59:53;;;;;;;29.67;12.93;;;14.30;70.80;;;;;;4995650;28;20446;-90
2022/12/20 11:02:34;;;;;;;21.73;10.00;;;14.20;66.90;;;;;;4996801;28;20034;-90
2022/12/20 11:05:01;;;;;;;19.15;9.40;;;14.40;70.50;;;;;;4995332;28;20512;-90
2022/12/20 11:07:30;;;;;;;21.08;9.77;;;14.60;70.40;;;;;;4995083;28;20030;-88
2022/12/20 11:09:58;;;;;;;20.63;9.45;;;14.70;70.90;;;;;;5014922;28;20140;-89
2022/12/20 11:12:25;;;;;;;20.67;8.93;;;14.80;71.40;;;;;;4979654;28;20129;-89
2022/12/20 11:15:07;;;;;;;18.33;8.13;;;14.80;72.00;;;;;;4995390;28;20057;-89
2022/12/20 11:17:32;;;;;;;17.33;6.95;;;15.00;72.70;;;;;;5005887;28;20530;-89
2022/12/20 11:20:20;;;;;;;16.50;7.57;;;15.00;73.20;;;;;;4994852;28;20030;-89
2022/12/20 11:23:13;;;;;;;14.70;7.90;;;15.10;73.80;;;;;;4995370;28;20026;-89
2022/12/20 11:26:07;;;;;;;18.83;7.28;;;15.10;74.50;;;;;;4992194;28;20032;-89
2022/12/20 11:29:07;;;;;;;15.32;7.03;;;15.10;75.00;;;;;;4991911;28;20038;-89
2022/12/20 11:32:17;;;;;;;15.07;6.22;;;15.20;75.60;;;;;;5012788;28;20026;-89
2022/12/20 11:34:48;;;;;;;13.50;5.88;;;15.20;76.30;;;;;;4914221;29;20476;-89
2022/12/20 11:37:25;;;;;;;15.45;5.63;;;15.20;76.60;;;;;;4929817;29;20027;-89
2022/12/20 11:40:09;;;;;;;23.52;6.15;;;15.20;77.10;;;;;;4952029;29;20711;-89
2022/12/20 11:43:03;;;;;;;11.43;5.68;;;15.20;77.50;;;;;;4951847;29;20027;-89
2022/12/20 11:45:49;;;;;;;18.10;5.45;;;15.20;77.90;;;;;;4937094;29;20095;-89
2022/12/20 11:48:28;;;;;;;16.42;6.28;;;15.30;78.30;;;;;;4932664;29;20432;-89
2022/12/20 11:50:57;;;;;;;10.80;4.93;;;15.20;78.60;;;;;;4932605;29;20035;-89
2022/12/20 11:53:27;;;;;;;13.43;6.30;;;15.20;78.80;;;;;;4946327;29;20036;-89
2022/12/20 11:55:58;;;;;;;14.18;4.90;;;15.30;79.10;;;;;;4952054;29;20172;-89
2022/12/20 11:58:46;;;;;;;9.30;4.60;;;15.30;79.40;;;;;;4929532;29;20027;-89
2022/12/20 12:01:16;;;;;;;12.35;5.50;;;15.30;79.50;;;;;;4916757;29;20134;-89
2022/12/20 12:04:21;;;;;;;12.57;5.13;;;15.40;79.70;;;;;;4936142;29;20043;-89
2022/12/20 12:07:03;;;;;;;8.70;5.40;;;15.40;79.90;;;;;;5015947;28;20037;-89
2022/12/20 12:09:56;;;;;;;10.38;5.60;;;15.40;80.00;;;;;;4998544;28;20022;-89
2022/12/20 12:12:36;;;;;;;10.55;5.20;;;15.40;80.00;;;;;;4997829;28;20634;-89
2022/12/20 12:15:14;;;;;;;10.68;5.38;;;15.40;80.10;;;;;;4998558;28;20044;-89
2022/12/20 12:18:13;;;;;;;11.90;5.95;;;15.40;80.20;;;;;;4998307;28;20495;-89
2022/12/20 12:20:51;;;;;;;11.93;5.40;;;15.40;80.40;;;;;;4998548;28;20054;-89
2022/12/20 12:23:54;;;;;;;17.05;5.65;;;15.50;80.50;;;;;;4998344;28;20268;-89
2022/12/20 12:26:31;;;;;;;9.45;4.68;;;15.40;80.50;;;;;;4998262;28;20459;-89
2022/12/20 12:29:03;;;;;;;12.82;4.88;;;15.50;80.70;;;;;;5015763;28;20026;-89
2022/12/20 12:31:43;;;;;;;10.65;4.93;;;15.50;80.70;;;;;;5016094;28;20448;-89
2022/12/20 12:34:21;;;;;;;8.93;4.95;;;15.50;80.80;;;;;;5015817;28;20026;-90
2022/12/20 12:37:01;;;;;;;10.00;5.15;;;15.50;80.90;;;;;;4998092;28;20026;-89
2022/12/20 12:39:35;;;;;;;13.38;5.13;;;15.50;81.00;;;;;;5015631;28;20053;-89
2022/12/20 12:42:27;;;;;;;17.05;5.13;;;15.50;81.10;;;;;;4998390;28;20029;-90
2022/12/20 12:45:04;;;;;;;11.65;5.57;;;15.50;81.20;;;;;;5015564;28;20030;-90
2022/12/20 12:47:53;;;;;;;12.23;5.75;;;15.50;81.50;;;;;;4997568;28;20100;-90
2022/12/20 12:50:29;;;;;;;10.43;4.68;;;15.50;81.70;;;;;;4984784;28;20129;-90
2022/12/20 12:53:03;;;;;;;11.52;5.22;;;15.50;81.60;;;;;;5015319;28;20026;-89
2022/12/20 12:55:50;;;;;;;9.32;5.00;;;15.50;81.60;;;;;;4997727;28;20372;-89
2022/12/20 12:58:22;;;;;;;10.57;5.15;;;15.50;81.60;;;;;;4977799;28;20027;-89
2022/12/20 13:01:00;;;;;;;8.95;5.03;;;15.50;81.60;;;;;;4978112;28;20026;-90